Time;durP1;ratioP1;P1;durP2;ratioP2;P2;SDS_P1;SDS_P2;PMS_P1;PMS_P2;Temp;Humidity;BMP_temperature;BMP_pressure;BME280_temperature;BME280_humidity;BME280_pressure;Samples;Min_cycle;Max_cycle;Signal;HPM_P1;HPM_P2
2023/03/13 00:01:10;;;;;;;10.70;3.00;;;;;;;6.84;100.00;99981.63;4983200;28;20040;-73
2023/03/13 00:03:36;;;;;;;10.02;2.70;;;;;;;6.83;100.00;99971.16;4997245;28;20058;-74
2023/03/13 00:06:09;;;;;;;15.07;3.03;;;;;;;6.82;100.00;99962.44;4962954;28;21738;-74
2023/03/13 00:08:35;;;;;;;20.33;3.63;;;;;;;6.83;100.00;99958.00;4996608;28;20441;-75
2023/03/13 00:11:08;;;;;;;10.52;2.70;;;;;;;6.83;100.00;99955.38;4978460;28;20056;-74
2023/03/13 00:13:34;;;;;;;12.00;3.28;;;;;;;6.82;100.00;99946.66;4969744;28;21570;-74
2023/03/13 00:16:00;;;;;;;11.55;3.72;;;;;;;6.82;100.00;99936.13;4984211;28;20472;-74
2023/03/13 00:18:26;;;;;;;12.95;3.28;;;;;;;6.83;100.00;99934.31;4995618;28;20761;-74
2023/03/13 00:21:03;;;;;;;15.55;3.33;;;;;;;6.83;100.00;99927.31;4996998;28;20081;-74
2023/03/13 00:23:29;;;;;;;12.60;3.58;;;;;;;6.82;100.00;99909.81;4980002;28;20053;-74
2023/03/13 00:25:58;;;;;;;12.98;3.55;;;;;;;6.82;100.00;99912.44;4979760;28;20088;-74
2023/03/13 00:28:24;;;;;;;13.43;3.50;;;;;;;6.80;100.00;99890.59;4977883;28;20048;-73
2023/03/13 00:30:49;;;;;;;13.20;3.30;;;;;;;6.80;100.00;99887.97;4996867;28;20639;-74
2023/03/13 00:33:15;;;;;;;18.77;4.05;;;;;;;6.81;100.00;99876.50;4997905;28;20061;-73
2023/03/13 00:35:40;;;;;;;20.20;4.25;;;;;;;6.82;100.00;99878.25;4993149;28;20489;-73
2023/03/13 00:38:06;;;;;;;11.93;3.83;;;;;;;6.82;100.00;99858.97;4997749;28;20056;-73
2023/03/13 00:40:31;;;;;;;16.92;4.00;;;;;;;6.83;100.00;99856.25;4979842;28;20900;-73
2023/03/13 00:42:57;;;;;;;16.33;4.05;;;;;;;6.87;100.00;99843.81;4994752;28;20164;-73
2023/03/13 00:45:23;;;;;;;10.85;3.92;;;;;;;6.90;100.00;99838.41;4995332;28;20049;-74
2023/03/13 00:47:48;;;;;;;8.32;3.50;;;;;;;6.93;100.00;99831.22;4996527;28;20076;-73
2023/03/13 00:50:14;;;;;;;16.38;3.45;;;;;;;6.97;100.00;99834.56;4984072;28;20096;-73
2023/03/13 00:52:40;;;;;;;11.65;3.30;;;;;;;6.99;100.00;99826.59;4962642;28;20049;-74
2023/03/13 00:55:06;;;;;;;13.30;3.58;;;;;;;7.00;100.00;99820.41;4996968;28;20436;-74
2023/03/13 00:57:36;;;;;;;21.08;4.28;;;;;;;7.01;100.00;99822.09;4996200;28;21040;-74
2023/03/13 01:00:06;;;;;;;12.32;3.42;;;;;;;7.02;100.00;99810.66;4975272;28;20284;-73
2023/03/13 01:02:31;;;;;;;10.18;3.83;;;;;;;7.02;100.00;99806.25;4994664;28;20662;-73
2023/03/13 01:04:57;;;;;;;10.00;3.63;;;;;;;7.03;100.00;99796.59;4982456;28;20085;-74
2023/03/13 01:07:22;;;;;;;15.35;3.47;;;;;;;7.03;100.00;99794.78;4994908;28;20081;-73
2023/03/13 01:09:48;;;;;;;11.50;3.55;;;;;;;7.04;100.00;99793.03;4994163;28;20494;-73
2023/03/13 01:12:13;;;;;;;11.90;3.15;;;;;;;7.04;100.00;99778.06;4998125;28;20100;-74
2023/03/13 01:14:39;;;;;;;13.38;3.80;;;;;;;7.05;100.00;99769.28;4979400;28;20968;-73
2023/03/13 01:17:04;;;;;;;17.40;3.47;;;;;;;7.03;100.00;99765.84;4997739;28;20049;-73
2023/03/13 01:19:29;;;;;;;10.18;3.20;;;;;;;7.05;100.00;99757.88;4995149;28;20034;-73
2023/03/13 01:21:55;;;;;;;15.95;3.30;;;;;;;7.05;100.00;99747.34;4997937;28;20123;-74
2023/03/13 01:24:21;;;;;;;14.02;3.90;;;;;;;7.06;100.00;99743.78;4966915;28;20318;-73
2023/03/13 01:26:47;;;;;;;14.18;3.08;;;;;;;7.06;100.00;99743.78;4995675;28;20046;-74
2023/03/13 01:29:12;;;;;;;12.98;3.53;;;;;;;7.06;100.00;99743.78;4967613;28;20049;-74
2023/03/13 01:31:38;;;;;;;9.40;3.13;;;;;;;7.07;100.00;99730.56;4996975;28;20219;-74
2023/03/13 01:34:04;;;;;;;13.05;3.95;;;;;;;7.09;100.00;99727.00;4997909;28;20076;-74
2023/03/13 01:36:31;;;;;;;8.05;2.97;;;;;;;7.09;100.00;99708.59;4980089;28;20050;-74
2023/03/13 01:38:58;;;;;;;14.63;3.75;;;;;;;7.08;100.00;99699.81;4996937;28;20046;-74
2023/03/13 01:41:25;;;;;;;15.70;4.00;;;;;;;7.08;100.00;99681.41;4960618;28;20043;-74
2023/03/13 01:43:51;;;;;;;15.80;3.47;;;;;;;7.06;100.00;99663.06;4985964;28;21016;-74
2023/03/13 01:46:20;;;;;;;13.73;3.38;;;;;;;7.07;100.00;99658.63;4981427;28;20037;-73
2023/03/13 01:48:45;;;;;;;16.85;3.72;;;;;;;7.05;100.00;99647.34;4997216;28;20405;-73
2023/03/13 01:51:17;;;;;;;15.10;3.75;;;;;;;7.05;100.00;99639.44;4997105;28;20046;-74
2023/03/13 01:53:45;;;;;;;10.65;3.60;;;;;;;7.05;100.00;99631.56;4997565;28;20064;-73
2023/03/13 01:56:18;;;;;;;14.05;3.45;;;;;;;7.05;100.00;99613.13;4997009;28;20070;-73
2023/03/13 01:58:43;;;;;;;14.00;4.13;;;;;;;7.04;100.00;99600.91;4986538;28;20629;-73
2023/03/13 02:01:09;;;;;;;16.30;3.90;;;;;;;7.04;100.00;99590.38;4993276;28;20037;-73
2023/03/13 02:03:36;;;;;;;16.50;4.32;;;;;;;7.02;100.00;99584.31;4978981;28;20393;-74
2023/03/13 02:06:02;;;;;;;11.43;3.92;;;;;;;7.02;100.00;99584.31;4995833;28;20037;-74
2023/03/13 02:08:45;;;;;;;13.90;4.28;;;;;;;7.01;100.00;99569.47;4978639;28;20034;-74
2023/03/13 02:11:43;;;;;;;7.75;4.07;;;;;;;7.02;100.00;99569.41;4969003;28;20076;-74
2023/03/13 02:14:08;;;;;;;7.40;4.13;;;;;;;7.02;100.00;99563.28;4981184;28;20703;-74
2023/03/13 02:16:34;;;;;;;9.77;3.50;;;;;;;7.03;100.00;99554.47;4998849;28;20397;-74
2023/03/13 02:19:02;;;;;;;12.23;3.95;;;;;;;7.01;100.00;99538.75;4977917;28;21152;-73
2023/03/13 02:21:45;;;;;;;9.90;3.85;;;;;;;7.03;100.00;99538.69;4966233;28;20519;-74
2023/03/13 02:24:26;;;;;;;9.85;3.72;;;;;;;7.05;100.00;99526.28;4962799;28;20054;-74
2023/03/13 02:26:52;;;;;;;8.65;4.00;;;;;;;7.05;100.00;99528.91;4968736;28;20048;-73
2023/03/13 02:29:17;;;;;;;12.77;4.10;;;;;;;7.06;100.00;99517.44;4993802;28;20174;-73
2023/03/13 02:31:45;;;;;;;12.07;3.55;;;;;;;7.06;100.00;99499.03;4995986;28;21768;-73
2023/03/13 02:34:13;;;;;;;7.35;3.72;;;;;;;7.08;100.00;99497.16;4981109;28;20061;-73
2023/03/13 02:36:46;;;;;;;10.57;4.13;;;;;;;7.09;100.00;99485.72;4974697;28;20500;-73
2023/03/13 02:39:13;;;;;;;8.70;3.42;;;;;;;7.09;100.00;99482.22;4995133;28;20140;-72
2023/03/13 02:41:40;;;;;;;8.82;3.78;;;;;;;7.10;100.00;99482.16;4978478;28;20152;-72
2023/03/13 02:44:06;;;;;;;9.82;3.90;;;;;;;7.11;100.00;99475.97;4998090;28;20053;-73
2023/03/13 02:46:44;;;;;;;9.40;3.80;;;;;;;7.14;100.00;99461.78;4995562;28;20049;-73
2023/03/13 02:49:23;;;;;;;11.02;4.07;;;;;;;7.13;100.00;99450.41;4981139;28;20048;-73
2023/03/13 02:51:49;;;;;;;9.45;3.55;;;;;;;7.16;100.00;99457.28;4986423;28;20073;-73
2023/03/13 02:54:27;;;;;;;11.18;4.15;;;;;;;7.17;100.00;99438.78;4966805;28;20045;-73
2023/03/13 02:56:56;;;;;;;7.60;3.55;;;;;;;7.18;100.00;99436.97;4963835;28;20041;-73
2023/03/13 02:59:22;;;;;;;8.70;3.50;;;;;;;7.19;100.00;99439.53;4969514;28;20053;-73
2023/03/13 03:01:51;;;;;;;6.50;3.78;;;;;;;7.22;100.00;99421.88;4986587;28;20513;-73
2023/03/13 03:04:21;;;;;;;9.80;3.75;;;;;;;7.23;100.00;99423.59;4968567;28;20517;-73
2023/03/13 03:06:46;;;;;;;8.30;4.28;;;;;;;7.25;100.00;99417.28;4952064;28;20768;-73
2023/03/13 03:09:12;;;;;;;6.72;3.80;;;;;;;7.25;100.00;99411.19;4981657;28;20650;-73
2023/03/13 03:11:37;;;;;;;8.10;3.83;;;;;;;7.27;100.00;99399.66;4944966;28;20128;-73
2023/03/13 03:14:03;;;;;;;10.10;3.92;;;;;;;7.30;100.00;99388.09;4982299;28;20057;-73
2023/03/13 03:16:29;;;;;;;10.18;3.88;;;;;;;7.33;100.00;99396.69;4995705;28;20376;-72
2023/03/13 03:18:54;;;;;;;7.50;3.40;;;;;;;7.37;100.00;99389.47;4983678;28;20066;-72
2023/03/13 03:21:21;;;;;;;8.93;3.90;;;;;;;7.44;100.00;99382.91;4995977;28;20080;-72
2023/03/13 03:23:46;;;;;;;7.90;3.85;;;;;;;7.54;100.00;99390.28;4983495;28;20096;-72
2023/03/13 03:26:12;;;;;;;6.30;3.63;;;;;;;7.62;100.00;99388.06;4995285;28;20034;-73
2023/03/13 03:28:37;;;;;;;5.85;3.55;;;;;;;7.70;100.00;99379.75;4980246;28;20041;-72
2023/03/13 03:31:05;;;;;;;7.75;4.45;;;;;;;7.81;100.00;99356.28;4994199;28;20053;-73
2023/03/13 03:33:30;;;;;;;9.55;4.50;;;;;;;7.93;100.00;99375.78;4978001;28;20046;-73
2023/03/13 03:36:00;;;;;;;7.85;4.18;;;;;;;8.02;100.00;99374.41;4980228;28;20140;-73
2023/03/13 03:38:26;;;;;;;9.70;4.88;;;;;;;8.06;100.00;99381.19;4981504;28;20041;-73
2023/03/13 03:40:51;;;;;;;8.75;4.60;;;;;;;8.09;100.00;99373.13;4966834;28;20041;-74
2023/03/13 03:43:17;;;;;;;11.80;5.00;;;;;;;8.11;100.00;99359.81;4995761;28;20037;-73
2023/03/13 03:45:42;;;;;;;7.53;4.55;;;;;;;8.11;100.00;99365.09;4979640;28;20144;-73
2023/03/13 03:48:08;;;;;;;7.10;4.65;;;;;;;8.08;100.00;99360.88;4983617;28;20104;-73
2023/03/13 03:50:33;;;;;;;10.18;4.70;;;;;;;8.10;100.00;99379.22;4981148;28;20084;-73
2023/03/13 03:52:58;;;;;;;9.07;5.57;;;;;;;8.09;100.00;99367.00;4977019;28;20042;-73
2023/03/13 03:55:24;;;;;;;10.63;5.63;;;;;;;8.05;100.00;99358.41;4979123;28;20076;-73
2023/03/13 03:57:49;;;;;;;13.45;6.35;;;;;;;8.03;100.00;99344.47;4985065;28;20053;-73
2023/03/13 04:00:18;;;;;;;9.55;5.82;;;;;;;8.01;100.00;99349.00;4975302;28;20149;-73
2023/03/13 04:02:43;;;;;;;12.48;5.70;;;;;;;7.99;100.00;99343.81;4978341;28;20041;-73
2023/03/13 04:05:09;;;;;;;13.52;6.38;;;;;;;7.97;100.00;99345.69;4981390;28;20641;-73
2023/03/13 04:07:34;;;;;;;13.55;7.03;;;;;;;7.96;100.00;99343.16;4995357;28;20569;-73
2023/03/13 04:10:00;;;;;;;16.15;6.65;;;;;;;7.96;100.00;99322.06;4977603;28;20050;-74
2023/03/13 04:12:25;;;;;;;14.10;6.88;;;;;;;7.98;100.00;99336.00;4994912;28;20050;-74
2023/03/13 04:14:51;;;;;;;14.48;7.07;;;;;;;7.99;100.00;99343.81;4978385;28;20050;-74
2023/03/13 04:17:16;;;;;;;13.88;6.70;;;;;;;8.01;100.00;99326.13;4976841;28;20050;-73
2023/03/13 04:19:42;;;;;;;13.70;6.72;;;;;;;8.04;100.00;99318.97;4996309;28;20057;-73
2023/03/13 04:22:07;;;;;;;16.38;7.05;;;;;;;8.05;100.00;99323.31;4981699;28;20049;-73
2023/03/13 04:24:33;;;;;;;15.00;7.13;;;;;;;8.07;100.00;99326.69;4957804;28;20054;-73
2023/03/13 04:26:58;;;;;;;10.82;6.82;;;;;;;8.09;100.00;99307.22;4967769;28;20057;-71
2023/03/13 04:29:24;;;;;;;11.88;6.47;;;;;;;8.19;100.00;99302.25;4978211;28;20172;-74
2023/03/13 04:31:49;;;;;;;12.90;5.90;;;;;;;8.33;100.00;99297.94;4984394;28;20432;-73
2023/03/13 04:34:15;;;;;;;11.93;5.68;;;;;;;8.45;100.00;99299.81;4997454;28;20058;-73
2023/03/13 04:36:41;;;;;;;13.90;5.80;;;;;;;8.58;100.00;99301.72;4968764;28;20709;-74
2023/03/13 04:39:06;;;;;;;16.42;6.18;;;;;;;8.71;100.00;99300.00;4970188;28;20132;-73
2023/03/13 04:41:32;;;;;;;13.45;5.43;;;;;;;8.83;100.00;99286.06;4978691;28;20144;-73
2023/03/13 04:43:57;;;;;;;21.02;6.45;;;;;;;8.88;100.00;99288.38;4982354;28;20121;-74
2023/03/13 04:46:23;;;;;;;12.75;5.32;;;;;;;8.98;100.00;99283.38;4988005;28;20493;-73
2023/03/13 04:48:48;;;;;;;14.20;5.13;;;;;;;9.02;100.00;99290.16;4996186;28;20529;-73
2023/03/13 04:51:14;;;;;;;18.52;6.28;;;;;;;9.08;100.00;99271.28;4988309;28;20175;-74
2023/03/13 04:53:39;;;;;;;18.65;6.78;;;;;;;9.15;100.00;99265.63;4981196;28;20100;-73
2023/03/13 04:56:05;;;;;;;12.95;6.47;;;;;;;9.19;100.00;99256.53;4998011;28;20079;-74
2023/03/13 04:58:30;;;;;;;17.33;6.30;;;;;;;9.20;100.00;99258.22;4980753;28;20044;-73
2023/03/13 05:00:56;;;;;;;13.10;6.68;;;;;;;9.23;100.00;99253.63;4997408;28;20042;-73
2023/03/13 05:03:22;;;;;;;14.43;6.05;;;;;;;9.26;100.00;99260.47;4998498;28;20057;-73
2023/03/13 05:05:47;;;;;;;9.57;5.75;;;;;;;9.30;100.00;99234.72;4985127;28;20498;-74
2023/03/13 05:08:13;;;;;;;11.00;5.28;;;;;;;9.33;100.00;99235.34;4998020;28;20050;-74
2023/03/13 05:10:41;;;;;;;12.25;5.15;;;;;;;9.40;100.00;99234.94;4981357;28;20050;-73
2023/03/13 05:13:06;;;;;;;13.45;5.15;;;;;;;9.44;100.00;99249.66;4999318;28;20048;-75
2023/03/13 05:15:32;;;;;;;14.35;5.03;;;;;;;9.47;100.00;99226.53;4997906;28;20050;-74
2023/03/13 05:17:57;;;;;;;10.27;5.18;;;;;;;9.49;100.00;99234.34;4982815;28;20054;-74
2023/03/13 05:20:22;;;;;;;10.80;4.88;;;;;;;9.52;100.00;99234.13;4999515;28;20056;-72
2023/03/13 05:22:48;;;;;;;10.52;5.43;;;;;;;9.53;100.00;99224.44;4985520;28;20257;-74
2023/03/13 05:25:14;;;;;;;11.90;6.30;;;;;;;9.54;100.00;99237.53;4983599;28;20069;-72
2023/03/13 05:27:39;;;;;;;15.70;5.72;;;;;;;9.53;100.00;99222.63;4981381;28;20045;-73
2023/03/13 05:30:06;;;;;;;9.98;5.70;;;;;;;9.54;100.00;99232.25;5000047;28;20405;-73
2023/03/13 05:32:31;;;;;;;13.38;6.10;;;;;;;9.53;100.00;99217.34;4974031;28;20045;-73
2023/03/13 05:34:56;;;;;;;12.27;5.38;;;;;;;9.54;100.00;99226.13;4999106;28;20098;-73
2023/03/13 05:37:22;;;;;;;13.63;5.38;;;;;;;9.55;100.00;99218.09;4992464;28;20080;-72
2023/03/13 05:39:47;;;;;;;13.35;4.82;;;;;;;9.55;100.00;99223.38;4981969;28;20512;-74
2023/03/13 05:42:13;;;;;;;11.20;5.57;;;;;;;9.57;100.00;99220.63;4990802;28;20046;-74
2023/03/13 05:44:38;;;;;;;12.95;5.70;;;;;;;9.58;100.00;99219.69;4999659;28;20056;-73
2023/03/13 05:47:04;;;;;;;14.43;5.20;;;;;;;9.67;100.00;99210.28;4999579;28;20053;-73
2023/03/13 05:49:40;;;;;;;13.30;5.53;;;;;;;9.70;100.00;99215.38;5000140;28;20041;-73
2023/03/13 05:52:05;;;;;;;17.23;5.95;;;;;;;9.70;100.00;99210.09;4971121;28;20058;-73
2023/03/13 05:54:31;;;;;;;14.00;5.32;;;;;;;9.71;100.00;99209.13;4998313;28;20631;-72
2023/03/13 05:56:56;;;;;;;8.52;4.78;;;;;;;9.75;100.00;99197.41;4972927;28;20485;-74
2023/03/13 05:59:21;;;;;;;10.93;4.80;;;;;;;9.78;100.00;99198.03;4967804;28;20050;-74
2023/03/13 06:01:47;;;;;;;10.73;4.00;;;;;;;9.80;100.00;99205.84;4993373;28;20077;-73
2023/03/13 06:04:12;;;;;;;12.02;4.28;;;;;;;9.82;100.00;99196.03;4998602;28;20080;-74
2023/03/13 06:06:38;;;;;;;11.40;4.00;;;;;;;9.84;100.00;99175.63;4985909;28;20153;-73
2023/03/13 06:09:03;;;;;;;12.32;4.22;;;;;;;9.87;100.00;99193.06;4984627;28;20124;-73
2023/03/13 06:11:29;;;;;;;11.60;3.45;;;;;;;9.85;100.00;99203.75;4981601;28;20130;-73
2023/03/13 06:13:54;;;;;;;13.98;3.22;;;;;;;9.83;100.00;99196.88;4998411;28;20721;-72
2023/03/13 06:16:20;;;;;;;11.15;3.80;;;;;;;9.83;100.00;99197.72;4985900;28;20050;-72
2023/03/13 06:18:45;;;;;;;12.30;3.30;;;;;;;9.89;100.00;99189.38;4985767;28;20046;-73
2023/03/13 06:21:10;;;;;;;10.30;3.47;;;;;;;9.92;100.00;99194.44;4970148;28;20054;-72
2023/03/13 06:23:36;;;;;;;11.45;3.03;;;;;;;9.94;100.00;99180.25;4996799;28;20389;-72
2023/03/13 06:26:01;;;;;;;10.27;2.83;;;;;;;9.95;100.00;99177.53;4985347;28;20049;-73
2023/03/13 06:28:27;;;;;;;6.70;2.42;;;;;;;9.97;100.00;99174.78;4978993;28;20119;-73
2023/03/13 06:30:53;;;;;;;6.45;2.38;;;;;;;9.99;100.00;99204.59;4969445;28;20061;-73
2023/03/13 06:33:19;;;;;;;11.75;2.67;;;;;;;9.99;100.00;99191.38;4997001;28;20104;-73
2023/03/13 06:35:44;;;;;;;10.52;3.15;;;;;;;10.00;100.00;99191.28;4980142;28;20042;-72
2023/03/13 06:38:10;;;;;;;7.40;2.85;;;;;;;9.99;100.00;99194.88;4976615;28;20049;-73
2023/03/13 06:40:35;;;;;;;9.50;2.63;;;;;;;9.99;100.00;99181.66;4995895;28;20052;-73
2023/03/13 06:43:01;;;;;;;10.68;3.10;;;;;;;10.00;100.00;99172.75;4983559;28;20104;-73
2023/03/13 06:45:26;;;;;;;12.20;3.35;;;;;;;10.02;100.00;99170.03;4994341;28;20285;-73
2023/03/13 06:47:52;;;;;;;9.57;2.97;;;;;;;10.03;100.00;99177.00;4984194;28;20103;-74
2023/03/13 06:50:17;;;;;;;7.45;2.58;;;;;;;10.04;100.00;99176.03;4995667;28;20050;-73
2023/03/13 06:52:43;;;;;;;11.43;3.00;;;;;;;10.05;100.00;99185.66;4996207;28;20068;-74
2023/03/13 06:55:09;;;;;;;10.18;2.70;;;;;;;10.05;100.00;99167.16;4996433;28;20289;-73
2023/03/13 06:57:35;;;;;;;8.05;3.00;;;;;;;10.09;100.00;99171.28;4994773;28;20045;-74
2023/03/13 07:00:00;;;;;;;5.63;2.42;;;;;;;10.10;100.00;99156.25;4983840;28;20575;-73
2023/03/13 07:02:26;;;;;;;8.73;2.65;;;;;;;10.08;100.00;99174.03;4981638;28;20528;-74
2023/03/13 07:04:51;;;;;;;9.55;3.58;;;;;;;10.11;100.00;99176.44;4978132;28;20058;-74
2023/03/13 07:07:16;;;;;;;9.57;2.47;;;;;;;10.08;100.00;99181.97;4994541;28;20037;-74
2023/03/13 07:09:42;;;;;;;8.23;2.85;;;;;;;10.10;100.00;99165.03;4994382;28;20444;-74
2023/03/13 07:12:08;;;;;;;11.57;3.33;;;;;;;10.12;100.00;99176.34;4995465;28;20053;-75
2023/03/13 07:14:33;;;;;;;13.35;2.88;;;;;;;10.11;100.00;99182.59;4979962;28;20056;-74
2023/03/13 07:16:59;;;;;;;8.65;2.72;;;;;;;10.12;100.00;99175.47;4967890;28;20056;-73
2023/03/13 07:19:26;;;;;;;8.55;2.85;;;;;;;10.09;100.00;99179.22;4986132;28;20095;-74
2023/03/13 07:21:51;;;;;;;6.95;2.85;;;;;;;10.09;100.00;99179.22;4966299;28;20509;-74
2023/03/13 07:24:18;;;;;;;8.50;2.95;;;;;;;10.10;100.00;99166.81;4997994;28;20045;-73
2023/03/13 07:26:43;;;;;;;8.63;3.05;;;;;;;10.10;100.00;99175.63;4967722;28;20554;-74
2023/03/13 07:29:09;;;;;;;5.93;2.50;;;;;;;10.07;100.00;99186.38;4967500;28;20073;-73
2023/03/13 07:31:34;;;;;;;8.25;2.95;;;;;;;10.04;100.00;99197.19;4979806;28;20045;-74
2023/03/13 07:34:00;;;;;;;11.23;2.58;;;;;;;10.03;100.00;99201.63;4995991;28;21137;-74
2023/03/13 07:36:25;;;;;;;10.88;2.60;;;;;;;10.02;100.00;99193.81;4980399;28;20046;-73
2023/03/13 07:38:51;;;;;;;7.18;2.72;;;;;;;9.99;100.00;99196.66;4978505;28;20192;-73
2023/03/13 07:41:18;;;;;;;8.13;2.80;;;;;;;10.00;100.00;99201.84;4978866;28;20156;-73
2023/03/13 07:43:44;;;;;;;13.80;3.33;;;;;;;9.99;100.00;99194.00;4979416;28;20592;-73
2023/03/13 07:46:17;;;;;;;6.03;2.40;;;;;;;9.99;100.00;99184.28;4994303;28;20045;-73
2023/03/13 07:48:43;;;;;;;6.75;2.58;;;;;;;10.02;100.00;99204.41;4997893;28;20050;-73
2023/03/13 07:51:17;;;;;;;7.22;2.63;;;;;;;10.04;100.00;99183.97;4978645;28;20849;-72
2023/03/13 07:53:46;;;;;;;8.55;2.65;;;;;;;10.05;100.00;99194.44;4983715;28;20054;-73
2023/03/13 07:56:14;;;;;;;5.70;2.50;;;;;;;10.04;100.00;99207.75;4978766;28;20599;-74
2023/03/13 07:58:41;;;;;;;5.07;2.58;;;;;;;10.03;100.00;99179.63;4997119;28;20116;-72
2023/03/13 08:01:08;;;;;;;6.90;2.35;;;;;;;10.01;100.00;99179.75;4977044;28;20046;-73
2023/03/13 08:03:34;;;;;;;8.10;2.50;;;;;;;10.01;100.00;99184.16;4984397;28;20038;-73
2023/03/13 08:06:01;;;;;;;7.13;2.45;;;;;;;10.01;100.00;99181.53;4996093;28;20532;-72
2023/03/13 08:08:27;;;;;;;7.10;2.30;;;;;;;9.97;100.00;99165.03;4981577;28;20054;-73
2023/03/13 08:10:53;;;;;;;5.55;2.05;;;;;;;10.00;100.00;99177.19;4974820;28;20125;-73
2023/03/13 08:13:18;;;;;;;8.10;2.63;;;;;;;10.02;100.00;99175.31;4994941;28;20667;-73
2023/03/13 08:15:44;;;;;;;7.95;2.50;;;;;;;10.08;100.00;99163.44;4995130;28;20827;-74
2023/03/13 08:18:09;;;;;;;6.63;2.08;;;;;;;10.12;100.00;99178.97;4969509;28;20619;-74
2023/03/13 08:20:35;;;;;;;4.70;2.13;;;;;;;10.19;100.00;99167.00;4980590;28;20081;-74
2023/03/13 08:23:00;;;;;;;7.82;2.47;;;;;;;10.27;100.00;99185.00;4998825;28;20116;-73
2023/03/13 08:25:25;;;;;;;8.10;1.95;;;;;;;10.36;100.00;99185.28;4998011;28;20050;-74
2023/03/13 08:27:51;;;;;;;6.10;2.10;;;;;;;10.42;100.00;99209.53;4982718;28;20060;-73
2023/03/13 08:30:17;;;;;;;3.60;1.85;;;;;;;10.45;100.00;99190.81;4987504;28;20469;-73
2023/03/13 08:32:42;;;;;;;8.20;2.42;;;;;;;10.50;100.00;99187.84;4981640;28;20048;-73
2023/03/13 08:35:08;;;;;;;8.13;2.28;;;;;;;10.55;100.00;99169.84;4999850;28;20513;-74
2023/03/13 08:37:33;;;;;;;5.38;1.90;;;;;;;10.59;100.00;99195.09;4997334;28;20586;-72
2023/03/13 08:39:59;;;;;;;2.85;1.35;;;;;;;10.62;100.00;99193.22;4998162;28;20042;-73
2023/03/13 08:42:24;;;;;;;7.85;2.20;;;;;;;10.66;100.00;99194.66;4981119;28;20125;-73
2023/03/13 08:44:50;;;;;;;6.28;1.77;;;;;;;10.71;100.00;99179.28;4979798;28;20412;-73
2023/03/13 08:47:17;;;;;;;4.43;1.75;;;;;;;10.73;100.00;99188.81;4997203;28;20072;-73
2023/03/13 08:49:43;;;;;;;5.30;1.92;;;;;;;10.78;100.00;99195.59;4985169;28;20176;-74
2023/03/13 08:52:08;;;;;;;7.03;2.22;;;;;;;10.80;100.00;99198.97;4980509;28;20071;-74
2023/03/13 08:54:34;;;;;;;4.45;1.60;;;;;;;10.80;100.00;99193.69;4998738;28;20509;-74
2023/03/13 08:56:59;;;;;;;3.83;2.22;;;;;;;10.76;100.00;99203.63;4983373;28;20046;-74
2023/03/13 08:59:25;;;;;;;8.48;2.15;;;;;;;10.73;100.00;99177.38;5000369;28;20145;-74
2023/03/13 09:01:50;;;;;;;5.25;1.50;;;;;;;10.72;100.00;99194.22;5000176;28;20080;-74
2023/03/13 09:04:17;;;;;;;3.17;1.52;;;;;;;10.72;100.00;99168.59;4997795;28;20084;-73
2023/03/13 09:06:42;;;;;;;4.22;1.63;;;;;;;10.70;100.00;99197.00;4986753;28;20185;-74
2023/03/13 09:09:08;;;;;;;8.82;2.28;;;;;;;10.72;100.00;99184.50;4999268;28;21182;-74
2023/03/13 09:11:35;;;;;;;9.32;1.95;;;;;;;10.76;100.00;99171.00;4992761;28;20041;-73
2023/03/13 09:14:01;;;;;;;8.32;2.67;;;;;;;10.76;100.00;99178.97;4981509;28;20424;-73
2023/03/13 09:16:28;;;;;;;6.20;1.77;;;;;;;10.71;100.00;99187.25;4988939;28;20046;-72
2023/03/13 09:18:55;;;;;;;8.02;1.70;;;;;;;10.66;100.00;99179.63;4971900;28;20061;-74
2023/03/13 09:21:22;;;;;;;10.88;2.13;;;;;;;10.61;100.00;99180.94;4996711;28;20501;-73
2023/03/13 09:23:48;;;;;;;6.05;2.28;;;;;;;10.50;100.00;99173.78;4996557;28;20415;-74
2023/03/13 09:26:14;;;;;;;9.13;2.17;;;;;;;10.41;100.00;99188.47;4985837;28;20733;-74
2023/03/13 09:28:43;;;;;;;11.27;1.90;;;;;;;10.34;100.00;99180.09;4981132;28;20050;-74
2023/03/13 09:31:11;;;;;;;7.03;2.15;;;;;;;10.28;100.00;99164.66;4979990;28;20133;-74
2023/03/13 09:33:37;;;;;;;5.80;2.00;;;;;;;10.27;100.00;99147.13;4996906;28;20043;-73
2023/03/13 09:36:03;;;;;;;6.80;2.03;;;;;;;10.30;100.00;99155.69;4998152;28;20049;-74
2023/03/13 09:38:28;;;;;;;6.43;2.25;;;;;;;10.40;100.00;99157.69;4995148;28;20049;-74
2023/03/13 09:40:54;;;;;;;6.30;2.22;;;;;;;10.49;100.00;99143.81;4993872;28;20385;-73
2023/03/13 09:43:35;;;;;;;4.63;1.40;;;;;;;10.61;100.00;99126.19;4980294;28;20083;-73
2023/03/13 09:46:03;;;;;;;3.50;1.70;;;;;;;10.72;100.00;99123.63;4991376;28;20050;-74
2023/03/13 09:48:36;;;;;;;8.70;1.75;;;;;;;10.82;100.00;99120.28;4981187;28;20050;-75
2023/03/13 09:51:20;;;;;;;5.05;1.77;;;;;;;10.92;100.00;99117.78;4991109;28;20045;-74
2023/03/13 09:54:08;;;;;;;6.25;1.40;;;;;;;11.04;100.00;99131.91;4978846;28;20045;-76
2023/03/13 09:56:43;;;;;;;7.07;1.60;;;;;;;11.13;100.00;99110.06;4958531;28;20050;-75
2023/03/13 09:59:30;;;;;;;7.65;1.92;;;;;;;11.17;100.00;99116.78;4948328;28;20062;-74
2023/03/13 10:01:57;;;;;;;6.97;2.25;;;;;;;11.23;100.00;99126.91;4959318;28;20125;-74
2023/03/13 10:04:38;;;;;;;7.63;1.85;;;;;;;11.34;100.00;99115.50;4948284;28;20129;-75
2023/03/13 10:07:04;;;;;;;8.88;2.17;;;;;;;11.46;100.00;99120.84;4946182;28;20057;-74
2023/03/13 10:09:32;;;;;;;5.00;1.75;;;;;;;11.58;100.00;99124.34;4947951;28;20050;-74
2023/03/13 10:12:12;;;;;;;8.05;3.00;;;;;;;11.59;100.00;99102.22;4958902;28;20665;-74
2023/03/13 10:14:43;;;;;;;9.68;2.20;;;;;;;11.58;100.00;99097.84;4948521;28;20047;-74
2023/03/13 10:17:37;;;;;;;8.45;2.22;;;;;;;11.58;100.00;99113.75;4959073;28;21817;-75
2023/03/13 10:20:27;;;;;;;6.57;2.20;;;;;;;11.60;100.00;99112.66;4957214;28;20494;-74
2023/03/13 10:23:00;;;;;;;12.32;3.13;;;;;;;11.62;100.00;99109.91;4960157;28;20765;-75
2023/03/13 10:25:35;;;;;;;;;;;;;;;11.63;100.00;99122.19;4958800;28;20184;-75
2023/03/13 10:28:01;;;;;;;6.40;1.52;;;;;;;11.62;100.00;99108.09;4968066;28;19925;-75
2023/03/13 10:30:33;;;;;;;8.45;2.55;;;;;;;11.61;100.00;99114.34;4962114;28;20259;-74
2023/03/13 10:33:14;;;;;;;7.82;1.83;;;;;;;11.62;100.00;99078.97;4978995;28;20052;-73
2023/03/13 10:35:41;;;;;;;9.27;2.33;;;;;;;11.62;100.00;99089.56;4979514;28;20143;-74
2023/03/13 10:38:16;;;;;;;11.85;1.90;;;;;;;11.66;100.00;99090.16;4981655;28;20374;-75
2023/03/13 10:40:42;;;;;;;16.45;2.47;;;;;;;11.70;100.00;99096.88;4977721;28;20045;-74
2023/03/13 10:43:19;;;;;;;7.22;2.35;;;;;;;11.75;100.00;99093.88;4995258;28;20095;-74
2023/03/13 10:45:44;;;;;;;10.85;2.35;;;;;;;11.79;100.00;99092.69;4969243;28;20042;-74
2023/03/13 10:48:12;;;;;;;6.00;2.28;;;;;;;11.85;100.00;99091.34;4963684;28;20242;-74
2023/03/13 10:50:42;;;;;;;7.75;2.00;;;;;;;11.88;100.00;99101.72;4995256;28;20059;-74
2023/03/13 10:53:29;;;;;;;8.23;2.47;;;;;;;11.93;100.00;99091.59;4996178;28;20057;-74
2023/03/13 10:55:58;;;;;;;10.30;2.42;;;;;;;11.95;100.00;99081.72;4994520;28;20274;-74
2023/03/13 10:58:33;;;;;;;8.57;2.22;;;;;;;11.98;100.00;99080.63;4980413;28;20041;-73
2023/03/13 11:01:20;;;;;;;7.80;2.00;;;;;;;12.04;100.00;99074.88;4975878;28;20598;-74
2023/03/13 11:03:47;;;;;;;6.57;2.00;;;;;;;12.09;100.00;99083.28;4967688;28;20076;-74
2023/03/13 11:06:29;;;;;;;6.45;1.73;;;;;;;12.14;100.00;99094.38;4968699;28;20128;-74
2023/03/13 11:09:03;;;;;;;9.10;1.70;;;;;;;12.25;100.00;99074.94;4995063;28;20183;-74
2023/03/13 11:11:29;;;;;;;8.88;1.80;;;;;;;12.33;100.00;99087.59;4994047;28;20049;-73
2023/03/13 11:14:16;;;;;;;5.65;1.80;;;;;;;12.40;100.00;99095.88;4994097;28;20137;-73
2023/03/13 11:16:51;;;;;;;4.90;1.42;;;;;;;12.40;100.00;99094.09;4978063;28;20387;-74
2023/03/13 11:19:28;;;;;;;6.85;1.85;;;;;;;12.39;100.00;99103.03;4985684;28;20116;-73
2023/03/13 11:22:05;;;;;;;8.43;2.25;;;;;;;12.34;100.00;99098.09;4969641;28;20054;-76
2023/03/13 11:24:49;;;;;;;8.65;1.98;;;;;;;12.35;100.00;99110.38;4979456;28;20135;-73
2023/03/13 11:27:40;;;;;;;6.28;1.90;;;;;;;12.39;100.00;99096.84;4994748;28;20104;-74
2023/03/13 11:30:23;;;;;;;7.07;1.77;;;;;;;12.44;100.00;99078.75;4994829;28;20046;-75